createdAt,value
2018-12-18T00:02:11.905Z,34.20
2018-12-18T00:04:39.852Z,35.93
2018-12-18T00:07:07.883Z,36.83
2018-12-18T00:09:35.384Z,34.17
2018-12-18T00:12:03.237Z,36.00
2018-12-18T00:14:30.736Z,38.27
2018-12-18T00:16:58.324Z,36.13
2018-12-18T00:19:25.950Z,36.70
2018-12-18T00:21:53.456Z,34.90
2018-12-18T00:24:20.963Z,36.53
2018-12-18T00:26:48.624Z,33.27
2018-12-18T00:29:16.128Z,38.43
2018-12-18T00:31:44.121Z,42.37
2018-12-18T00:34:11.643Z,34.77
2018-12-18T00:36:39.408Z,33.90
2018-12-18T00:39:09.083Z,37.43
2018-12-18T00:41:36.589Z,35.63
2018-12-18T00:44:04.108Z,34.20
2018-12-18T00:46:31.885Z,33.57
2018-12-18T00:48:59.389Z,36.43
2018-12-18T00:51:27.016Z,37.53
2018-12-18T00:53:54.558Z,34.13
2018-12-18T00:56:25.633Z,35.87
2018-12-18T00:58:53.348Z,35.70
2018-12-18T01:01:21.197Z,32.60
2018-12-18T01:03:52.787Z,34.70
2018-12-18T01:06:18.508Z,36.37
2018-12-18T01:08:46.010Z,36.03
2018-12-18T01:11:13.508Z,37.60
2018-12-18T01:13:41.000Z,37.93
2018-12-18T01:16:08.744Z,35.20
2018-12-18T01:18:36.371Z,36.50
2018-12-18T01:21:03.921Z,35.90
2018-12-18T01:23:31.421Z,39.50
2018-12-18T01:25:58.920Z,35.20
2018-12-18T01:28:26.436Z,34.73
2018-12-18T01:30:54.156Z,40.87
2018-12-18T01:33:21.800Z,34.20
2018-12-18T01:35:49.659Z,41.80
2018-12-18T01:38:17.149Z,36.97
2018-12-18T01:40:44.702Z,41.40
2018-12-18T01:43:12.236Z,34.93
2018-12-18T01:45:39.793Z,32.63
2018-12-18T01:48:07.356Z,31.57
2018-12-18T01:50:35.042Z,32.33
2018-12-18T01:53:02.556Z,37.93
2018-12-18T01:55:30.056Z,40.53
2018-12-18T01:57:57.765Z,36.97
2018-12-18T02:00:25.337Z,36.20
2018-12-18T02:02:52.836Z,37.77
2018-12-18T02:05:20.609Z,34.60
2018-12-18T02:07:48.566Z,36.10
2018-12-18T02:10:16.060Z,31.53
2018-12-18T02:12:43.784Z,31.47
2018-12-18T02:15:11.300Z,30.23
2018-12-18T02:17:38.796Z,30.67
2018-12-18T02:20:06.896Z,36.70
2018-12-18T02:22:34.405Z,30.63
2018-12-18T02:25:01.945Z,32.03
2018-12-18T02:27:29.651Z,33.90
2018-12-18T02:29:57.162Z,32.27
2018-12-18T02:32:25.115Z,32.53
2018-12-18T02:34:52.977Z,33.37
2018-12-18T02:37:20.480Z,37.97
2018-12-18T02:39:48.029Z,33.57
2018-12-18T02:42:15.576Z,32.77
2018-12-18T02:44:43.074Z,31.70
2018-12-18T02:47:10.585Z,36.00
2018-12-18T02:49:38.660Z,33.90
2018-12-18T02:52:06.157Z,31.03
2018-12-18T02:54:33.673Z,32.07
2018-12-18T02:57:01.380Z,31.30
2018-12-18T02:59:28.899Z,37.80
2018-12-18T03:01:56.401Z,32.10
2018-12-18T03:04:24.282Z,30.73
2018-12-18T03:06:52.413Z,31.23
2018-12-18T03:09:19.908Z,31.87
2018-12-18T03:11:47.421Z,30.53
2018-12-18T03:14:15.272Z,32.40
2018-12-18T03:16:42.772Z,30.37
2018-12-18T03:19:11.413Z,29.83
2018-12-18T03:21:39.668Z,30.07
2018-12-18T03:24:07.456Z,30.53
2018-12-18T03:26:35.204Z,34.80
2018-12-18T03:29:02.718Z,29.50
2018-12-18T03:31:30.462Z,28.40
2018-12-18T03:33:58.356Z,31.03
2018-12-18T03:36:26.116Z,33.33
2018-12-18T03:38:53.707Z,33.50
2018-12-18T03:41:21.213Z,35.43
2018-12-18T03:43:48.988Z,33.40
2018-12-18T03:46:16.556Z,30.73
2018-12-18T03:48:44.352Z,32.23
2018-12-18T03:51:11.933Z,31.03
2018-12-18T03:53:39.442Z,31.27
2018-12-18T03:56:07.280Z,33.30
2018-12-18T03:58:34.793Z,30.33
2018-12-18T04:01:02.294Z,29.50
2018-12-18T04:03:30.087Z,30.07
2018-12-18T04:05:57.839Z,31.70
2018-12-18T04:08:25.345Z,29.40
2018-12-18T04:10:52.942Z,31.33
2018-12-18T04:13:20.927Z,29.67
2018-12-18T04:15:48.447Z,29.10
2018-12-18T04:18:15.941Z,31.23
2018-12-18T04:20:43.828Z,29.00
2018-12-18T04:23:11.346Z,33.47
2018-12-18T04:25:38.846Z,30.07
2018-12-18T04:28:06.413Z,33.23
2018-12-18T04:30:34.060Z,36.47
2018-12-18T04:33:02.208Z,30.53
2018-12-18T04:35:36.293Z,29.50
2018-12-18T04:38:03.983Z,33.47
2018-12-18T04:40:31.579Z,30.20
2018-12-18T04:42:59.072Z,34.13
2018-12-18T04:45:26.574Z,32.43
2018-12-18T04:47:54.401Z,33.40
2018-12-18T04:50:22.198Z,31.73
2018-12-18T04:52:49.730Z,29.73
2018-12-18T04:55:17.319Z,29.53
2018-12-18T04:57:45.233Z,29.37
2018-12-18T05:00:12.771Z,29.17
2018-12-18T05:02:40.284Z,28.40
2018-12-18T05:05:08.161Z,28.80
2018-12-18T05:07:35.929Z,31.50
2018-12-18T05:10:04.479Z,28.80
2018-12-18T05:12:32.082Z,29.70
2018-12-18T05:14:59.834Z,32.70
2018-12-18T05:17:27.342Z,30.70
2018-12-18T05:19:54.963Z,27.90
2018-12-18T05:22:22.498Z,28.40
2018-12-18T05:24:49.996Z,28.93
2018-12-18T05:27:17.617Z,29.30
2018-12-18T05:29:45.175Z,30.17
2018-12-18T05:32:13.061Z,31.47
2018-12-18T05:34:41.054Z,30.67
2018-12-18T05:37:08.554Z,32.70
2018-12-18T05:39:36.063Z,27.17
2018-12-18T05:42:04.621Z,33.50
2018-12-18T05:44:32.584Z,36.23
2018-12-18T05:47:00.099Z,31.83
2018-12-18T05:49:27.924Z,28.73
2018-12-18T05:51:55.424Z,28.83
2018-12-18T05:54:22.921Z,29.77
2018-12-18T05:56:50.660Z,30.50
2018-12-18T05:59:18.214Z,28.93
2018-12-18T06:01:45.705Z,29.97
2018-12-18T06:04:14.240Z,33.20
2018-12-18T06:06:41.958Z,29.77
2018-12-18T06:09:09.408Z,28.53
2018-12-18T06:11:36.857Z,30.17
2018-12-18T06:14:04.303Z,30.90
2018-12-18T06:16:31.750Z,30.37
2018-12-18T06:18:59.362Z,29.97
2018-12-18T06:21:26.907Z,32.03
2018-12-18T06:23:54.333Z,31.40
2018-12-18T06:26:21.805Z,32.30
2018-12-18T06:28:49.255Z,34.60
2018-12-18T06:31:16.732Z,29.53
2018-12-18T06:33:44.711Z,30.83
2018-12-18T06:36:12.454Z,32.10
2018-12-18T06:38:40.096Z,32.63
2018-12-18T06:41:07.605Z,31.20
2018-12-18T06:43:35.029Z,29.60
2018-12-18T06:46:02.749Z,31.40
2018-12-18T06:48:30.208Z,30.47
2018-12-18T06:50:57.839Z,32.00
2018-12-18T06:53:25.705Z,29.50
2018-12-18T06:55:53.162Z,35.43
2018-12-18T06:58:20.617Z,30.73
2018-12-18T07:00:48.123Z,31.37
2018-12-18T07:03:15.577Z,30.30
2018-12-18T07:05:43.613Z,30.37
2018-12-18T07:08:11.329Z,31.17
2018-12-18T07:10:38.791Z,30.40
2018-12-18T07:13:06.223Z,30.67
2018-12-18T07:15:33.890Z,30.23
2018-12-18T07:18:01.321Z,30.50
2018-12-18T07:20:28.882Z,30.97
2018-12-18T07:22:56.367Z,36.90
2018-12-18T07:25:23.813Z,35.47
2018-12-18T07:27:51.314Z,30.53
2018-12-18T07:30:18.795Z,33.83
2018-12-18T07:32:46.557Z,30.90
2018-12-18T07:35:14.670Z,30.20
2018-12-18T07:37:42.164Z,29.97
2018-12-18T07:40:09.677Z,32.60
2018-12-18T07:42:37.149Z,31.37
2018-12-18T07:45:04.991Z,29.47
2018-12-18T07:47:32.601Z,30.33
2018-12-18T07:50:00.214Z,29.07
2018-12-18T07:52:27.662Z,29.43
2018-12-18T07:54:55.111Z,31.33
2018-12-18T07:57:22.794Z,33.97
2018-12-18T07:59:50.413Z,31.13
2018-12-18T08:02:18.174Z,32.20
2018-12-18T08:04:46.191Z,31.00
2018-12-18T08:07:13.856Z,33.90
2018-12-18T08:09:41.308Z,30.57
2018-12-18T08:12:08.785Z,32.93
2018-12-18T08:14:36.937Z,31.13
2018-12-18T08:17:04.403Z,35.80
2018-12-18T08:19:32.301Z,26.77
2018-12-18T08:21:59.738Z,27.03
2018-12-18T08:24:27.173Z,32.27
2018-12-18T08:26:54.668Z,27.27
2018-12-18T08:29:22.106Z,26.13
2018-12-18T08:31:49.948Z,25.57
2018-12-18T08:34:17.393Z,25.10
2018-12-18T08:36:45.400Z,26.13
2018-12-18T08:39:13.177Z,27.97
2018-12-18T08:41:40.657Z,26.13
2018-12-18T08:44:08.153Z,26.03
2018-12-18T08:46:35.629Z,25.87
2018-12-18T08:49:03.373Z,29.93
2018-12-18T08:51:31.235Z,31.77
2018-12-18T08:53:58.773Z,28.13
2018-12-18T08:56:27.433Z,28.60
2018-12-18T08:58:54.913Z,29.40
2018-12-18T09:01:22.369Z,30.83
2018-12-18T09:03:50.074Z,27.97
2018-12-18T09:06:17.841Z,29.17
2018-12-18T09:08:45.344Z,30.73
2018-12-18T09:11:13.067Z,30.73
2018-12-18T09:13:40.512Z,33.13
2018-12-18T09:19:08.811Z,32.07
2018-12-18T09:21:36.338Z,34.57
2018-12-18T09:24:03.820Z,33.30
2018-12-18T09:26:31.567Z,31.90
2018-12-18T09:28:59.109Z,32.47
2018-12-18T09:31:26.557Z,29.97
2018-12-18T09:33:54.472Z,30.50
2018-12-18T09:36:22.550Z,30.33
2018-12-18T09:42:01.585Z,28.73
2018-12-18T09:44:29.353Z,29.50
2018-12-18T09:46:56.865Z,27.87
2018-12-18T09:49:24.369Z,28.27
2018-12-18T09:51:52.097Z,30.97
2018-12-18T09:54:19.553Z,28.07
2018-12-18T09:56:49.894Z,29.87
2018-12-18T09:59:17.401Z,33.40
2018-12-18T10:01:44.918Z,29.57
2018-12-18T10:04:12.576Z,29.97
2018-12-18T10:06:40.329Z,31.27
2018-12-18T10:09:09.806Z,28.47
2018-12-18T10:11:37.343Z,27.63
2018-12-18T10:14:04.951Z,30.63
2018-12-18T10:16:32.918Z,29.00
2018-12-18T10:19:01.073Z,28.47
2018-12-18T10:21:28.567Z,29.13
2018-12-18T10:23:56.020Z,33.57
2018-12-18T10:26:23.912Z,33.17
2018-12-18T10:28:51.353Z,30.60
2018-12-18T10:31:18.794Z,35.43
2018-12-18T10:33:46.717Z,30.33
2018-12-18T10:36:14.434Z,30.47
2018-12-18T10:38:41.871Z,29.27
2018-12-18T10:41:09.425Z,29.97
2018-12-18T10:43:36.874Z,29.73
2018-12-18T10:46:04.417Z,29.40
2018-12-18T10:48:31.903Z,30.83
2018-12-18T10:51:00.140Z,30.53
2018-12-18T10:53:27.682Z,31.27
2018-12-18T10:55:55.128Z,32.53
2018-12-18T10:58:24.176Z,32.27
2018-12-18T11:00:58.141Z,33.87
2018-12-18T11:03:25.583Z,32.43
2018-12-18T11:05:53.296Z,32.17
2018-12-18T11:08:20.741Z,30.57
2018-12-18T11:10:48.189Z,30.60
2018-12-18T11:13:17.096Z,30.73
2018-12-18T11:15:45.150Z,33.80
2018-12-18T11:18:12.637Z,30.37
2018-12-18T11:20:40.326Z,30.47
2018-12-18T11:23:07.822Z,29.77
2018-12-18T11:25:35.290Z,30.87
2018-12-18T11:28:02.870Z,33.43
2018-12-18T11:30:30.416Z,32.60
2018-12-18T11:32:58.113Z,31.83
2018-12-18T11:35:25.939Z,31.57
2018-12-18T11:37:53.389Z,31.43
2018-12-18T11:40:21.285Z,34.17
2018-12-18T11:42:48.739Z,31.80
2018-12-18T11:45:16.582Z,34.83
2018-12-18T11:47:44.038Z,33.47
2018-12-18T11:50:11.779Z,34.53
2018-12-18T11:52:39.389Z,35.03
2018-12-18T11:55:06.905Z,33.27
2018-12-18T11:57:34.373Z,32.87
2018-12-18T12:00:01.823Z,34.70
2018-12-18T12:02:29.302Z,31.90
2018-12-18T12:04:56.860Z,32.43
2018-12-18T12:07:24.725Z,30.43
2018-12-18T12:09:52.474Z,25.53
2018-12-18T12:12:19.932Z,24.83
2018-12-18T12:14:47.625Z,25.73
2018-12-18T12:17:15.319Z,27.87
2018-12-18T12:19:42.937Z,25.87
2018-12-18T12:22:10.381Z,28.60
2018-12-18T12:24:37.849Z,29.37
2018-12-18T12:27:10.880Z,26.47
2018-12-18T12:29:38.325Z,28.40
2018-12-18T12:32:06.275Z,26.13
2018-12-18T12:34:33.877Z,26.47
2018-12-18T12:37:01.322Z,28.53
2018-12-18T12:39:28.766Z,25.30
2018-12-18T12:41:56.498Z,24.33
2018-12-18T12:44:23.955Z,27.03
2018-12-18T12:46:51.403Z,27.47
2018-12-18T12:49:18.870Z,24.60
2018-12-18T12:51:46.541Z,25.73
2018-12-18T12:54:13.981Z,24.53
2018-12-18T12:56:41.430Z,24.97
2018-12-18T12:59:09.029Z,25.37
2018-12-18T13:01:41.971Z,26.87
2018-12-18T13:04:06.236Z,25.63
2018-12-18T13:06:36.569Z,28.40
2018-12-18T13:09:05.881Z,27.13
2018-12-18T13:11:33.333Z,25.60
2018-12-18T13:14:00.802Z,23.90
2018-12-18T13:16:28.245Z,25.63
2018-12-18T13:18:55.938Z,22.97
2018-12-18T13:21:23.483Z,23.27
2018-12-18T13:23:51.368Z,23.73
2018-12-18T13:26:18.819Z,21.87
2018-12-18T13:28:46.321Z,21.00
2018-12-18T13:31:13.815Z,22.10
2018-12-18T13:33:41.489Z,21.50
2018-12-18T13:36:09.340Z,21.63
2018-12-18T13:38:36.786Z,18.80
2018-12-18T13:41:04.468Z,19.63
2018-12-18T13:43:31.961Z,19.17
2018-12-18T13:45:59.417Z,17.30
2018-12-18T13:48:27.087Z,18.50
2018-12-18T13:50:54.817Z,16.93
2018-12-18T13:53:22.414Z,15.87
2018-12-18T13:55:49.865Z,16.17
2018-12-18T13:58:17.310Z,17.40
2018-12-18T14:00:45.023Z,16.97
2018-12-18T14:03:12.514Z,19.10
2018-12-18T14:08:09.758Z,18.33
2018-12-18T14:10:37.207Z,18.90
2018-12-18T14:13:04.725Z,18.77
2018-12-18T14:15:32.186Z,18.50
2018-12-18T14:17:59.687Z,17.50
2018-12-18T14:20:27.403Z,18.13
2018-12-18T14:22:54.853Z,16.87
2018-12-18T14:25:22.286Z,16.17
2018-12-18T14:27:49.775Z,16.70
2018-12-18T14:30:17.225Z,15.90
2018-12-18T14:32:45.161Z,16.67
2018-12-18T14:35:13.109Z,17.07
2018-12-18T14:37:40.602Z,17.23
2018-12-18T14:40:08.046Z,17.13
2018-12-18T14:42:35.552Z,18.17
2018-12-18T14:45:03.710Z,18.40
2018-12-18T14:47:31.173Z,17.33
2018-12-18T14:49:58.943Z,17.07
2018-12-18T14:52:26.395Z,16.97
2018-12-18T14:54:53.897Z,17.90
2018-12-18T14:57:21.346Z,16.43
2018-12-18T14:59:48.817Z,16.07
2018-12-18T15:02:16.285Z,17.37
2018-12-18T15:04:44.690Z,17.33
2018-12-18T15:07:12.477Z,17.50
2018-12-18T15:09:39.926Z,17.00
2018-12-18T15:12:07.413Z,18.03
2018-12-18T15:14:34.865Z,17.43
2018-12-18T15:17:02.364Z,17.37
2018-12-18T15:19:30.046Z,17.77
2018-12-18T15:21:57.557Z,17.70
2018-12-18T15:24:25.001Z,18.17
2018-12-18T15:26:52.457Z,17.70
2018-12-18T15:29:19.930Z,17.23
2018-12-18T15:31:47.681Z,17.93
2018-12-18T15:34:15.123Z,18.73
2018-12-18T15:36:43.202Z,17.70
2018-12-18T15:39:10.649Z,17.20
2018-12-18T15:41:38.265Z,17.13
2018-12-18T15:44:06.080Z,17.17
2018-12-18T15:46:33.579Z,18.17
2018-12-18T15:49:01.021Z,17.20
2018-12-18T15:51:28.663Z,17.33
2018-12-18T15:53:56.121Z,17.47
2018-12-18T15:56:23.570Z,18.33
2018-12-18T15:58:51.030Z,17.37
2018-12-18T16:01:19.057Z,16.57
2018-12-18T16:03:46.515Z,18.00
2018-12-18T16:06:14.397Z,17.13
2018-12-18T16:08:41.948Z,17.43
2018-12-18T16:11:09.438Z,17.23
2018-12-18T16:13:37.216Z,16.97
2018-12-18T16:16:04.697Z,17.50
2018-12-18T16:18:33.802Z,17.90
2018-12-18T16:21:01.618Z,16.83
2018-12-18T16:23:29.137Z,17.37
2018-12-18T16:25:56.585Z,17.37
2018-12-18T16:28:24.245Z,17.83
2018-12-18T16:30:51.737Z,17.13
2018-12-18T16:33:19.490Z,17.37
2018-12-18T16:35:47.496Z,18.33
2018-12-18T16:38:15.003Z,17.93
2018-12-18T16:40:43.728Z,17.40
2018-12-18T16:43:11.845Z,16.30
2018-12-18T16:45:39.309Z,16.20
2018-12-18T16:48:06.764Z,16.10
2018-12-18T16:50:34.882Z,16.23
2018-12-18T16:53:02.479Z,16.67
2018-12-18T16:55:29.931Z,16.60
2018-12-18T16:57:57.435Z,17.00
2018-12-18T17:00:24.929Z,18.30
2018-12-18T17:02:52.702Z,17.23
2018-12-18T17:05:20.463Z,17.50
2018-12-18T17:07:47.894Z,17.13
2018-12-18T17:10:15.348Z,17.33
2018-12-18T17:12:44.745Z,16.47
2018-12-18T17:15:12.517Z,16.63
2018-12-18T17:17:39.966Z,17.00
2018-12-18T17:20:07.687Z,17.60
2018-12-18T17:22:35.146Z,17.67
2018-12-18T17:25:02.725Z,16.93
2018-12-18T17:27:30.648Z,16.23
2018-12-18T17:29:58.390Z,15.83
2018-12-18T17:32:26.349Z,17.60
2018-12-18T17:34:53.964Z,17.03
2018-12-18T17:37:21.431Z,16.63
2018-12-18T17:39:48.898Z,17.60
2018-12-18T17:42:16.369Z,17.77
2018-12-18T17:44:43.826Z,16.53
2018-12-18T17:47:12.292Z,19.23
2018-12-18T17:49:40.182Z,18.13
2018-12-18T17:52:07.638Z,16.80
2018-12-18T17:54:35.097Z,16.97
2018-12-18T17:57:02.559Z,18.07
2018-12-18T17:59:30.012Z,18.23
2018-12-18T18:01:57.909Z,16.47
2018-12-18T18:04:25.494Z,17.93
2018-12-18T18:06:53.205Z,17.07
2018-12-18T18:09:20.653Z,15.90
2018-12-18T18:11:48.097Z,16.60
2018-12-18T18:14:15.617Z,16.30
2018-12-18T18:16:43.074Z,16.17
2018-12-18T18:19:10.882Z,16.23
2018-12-18T18:21:38.393Z,16.20
2018-12-18T18:24:05.854Z,15.87
2018-12-18T18:26:34.162Z,17.07
2018-12-18T18:29:01.893Z,16.40
2018-12-18T18:31:29.625Z,17.63
2018-12-18T18:33:57.366Z,16.20
2018-12-18T18:36:25.037Z,17.07
2018-12-18T18:38:52.488Z,17.43
2018-12-18T18:41:20.200Z,18.13
2018-12-18T18:43:47.657Z,18.13
2018-12-18T18:46:15.145Z,18.57
2018-12-18T18:48:42.614Z,18.10
2018-12-18T18:51:10.292Z,17.73
2018-12-18T18:53:37.746Z,17.87
2018-12-18T18:56:05.221Z,18.33
2018-12-18T18:58:32.701Z,16.93
2018-12-18T19:01:00.182Z,17.93
2018-12-18T19:03:27.637Z,17.20
2018-12-18T19:05:55.503Z,16.37
2018-12-18T19:08:22.993Z,16.50
2018-12-18T19:10:50.438Z,16.80
2018-12-18T19:13:17.901Z,16.20
2018-12-18T19:15:45.892Z,16.57
2018-12-18T19:18:13.354Z,16.77
2018-12-18T19:20:40.908Z,17.17
2018-12-18T19:23:08.345Z,15.93
2018-12-18T19:25:35.821Z,15.80
2018-12-18T19:28:03.485Z,15.17
2018-12-18T19:30:31.369Z,15.77
2018-12-18T19:32:58.994Z,15.67
2018-12-18T19:35:26.743Z,16.07
2018-12-18T19:37:54.526Z,16.47
2018-12-18T19:40:22.017Z,16.23
2018-12-18T19:42:49.489Z,17.23
2018-12-18T19:45:17.284Z,15.47
2018-12-18T19:47:44.744Z,16.97
2018-12-18T19:50:12.547Z,17.20
2018-12-18T19:52:40.008Z,17.67
2018-12-18T19:55:07.530Z,16.00
2018-12-18T19:57:34.986Z,16.70
2018-12-18T20:00:03.613Z,16.33
2018-12-18T20:02:31.406Z,17.50
2018-12-18T20:04:59.392Z,16.87
2018-12-18T20:07:27.213Z,17.23
2018-12-18T20:09:54.785Z,18.53
2018-12-18T20:12:22.226Z,17.63
2018-12-18T20:14:49.956Z,17.17
2018-12-18T20:17:17.555Z,16.60
2018-12-18T20:22:16.506Z,17.23
2018-12-18T20:24:44.236Z,17.13
2018-12-18T20:27:11.701Z,18.53
2018-12-18T20:29:39.940Z,17.70
2018-12-18T20:32:07.682Z,19.10
2018-12-18T20:34:35.789Z,18.83
2018-12-18T20:37:03.353Z,17.63
2018-12-18T20:39:32.039Z,18.87
2018-12-18T20:41:59.513Z,19.63
2018-12-18T20:44:27.048Z,19.47
2018-12-18T20:46:54.519Z,19.73
2018-12-18T20:49:22.033Z,18.87
2018-12-18T20:51:49.792Z,20.10
2018-12-18T20:54:17.298Z,20.83
2018-12-18T20:56:44.817Z,19.53
2018-12-18T20:59:12.271Z,18.63
2018-12-18T21:01:40.211Z,17.97
2018-12-18T21:04:08.174Z,18.10
2018-12-18T21:06:35.939Z,17.37
2018-12-18T21:09:06.002Z,18.03
2018-12-18T21:11:33.445Z,20.00
2018-12-18T21:14:01.069Z,18.00
2018-12-18T21:16:28.529Z,18.53
2018-12-18T21:18:56.423Z,18.67
2018-12-18T21:21:24.057Z,19.63
2018-12-18T21:23:51.518Z,18.20
2018-12-18T21:26:18.948Z,17.00
2018-12-18T21:28:46.698Z,18.70
2018-12-18T21:31:14.481Z,18.73
2018-12-18T21:33:42.284Z,18.87
2018-12-18T21:36:10.141Z,18.33
2018-12-18T21:38:37.640Z,20.63
2018-12-18T21:41:05.076Z,18.70
2018-12-18T21:43:32.538Z,18.37
2018-12-18T21:45:59.999Z,18.67
2018-12-18T21:48:27.540Z,17.93
2018-12-18T21:50:55.281Z,17.20
2018-12-18T21:53:22.723Z,17.47
2018-12-18T21:55:50.196Z,17.03
2018-12-18T21:58:17.645Z,17.40
2018-12-18T22:00:45.184Z,17.23
2018-12-18T22:03:12.729Z,18.07
2018-12-18T22:05:40.658Z,17.03
2018-12-18T22:08:08.097Z,18.80
2018-12-18T22:10:35.556Z,17.70
2018-12-18T22:13:03.031Z,17.33
2018-12-18T22:15:30.464Z,17.80
2018-12-18T22:17:57.918Z,18.17
2018-12-18T22:20:25.744Z,19.10
2018-12-18T22:22:53.197Z,18.17
2018-12-18T22:25:20.650Z,18.23
2018-12-18T22:27:48.452Z,17.23
2018-12-18T22:30:15.990Z,18.83
2018-12-18T22:32:43.876Z,18.43
2018-12-18T22:35:11.532Z,18.07
2018-12-18T22:37:38.994Z,19.93
2018-12-18T22:40:07.008Z,19.87
2018-12-18T22:42:34.729Z,19.20
2018-12-18T22:45:02.213Z,21.37
2018-12-18T22:47:33.832Z,20.50
2018-12-18T22:50:02.896Z,18.90
2018-12-18T22:52:33.491Z,18.10
2018-12-18T22:55:02.558Z,18.57
2018-12-18T22:57:30.227Z,18.37
2018-12-18T22:59:57.690Z,18.50
2018-12-18T23:02:25.522Z,19.27
2018-12-18T23:04:54.014Z,20.63
2018-12-18T23:07:22.185Z,21.23
2018-12-18T23:09:49.912Z,20.97
2018-12-18T23:12:17.431Z,18.37
2018-12-18T23:14:44.896Z,18.33
2018-12-18T23:17:12.385Z,20.23
2018-12-18T23:19:40.062Z,18.63
2018-12-18T23:22:07.555Z,19.93
2018-12-18T23:24:35.002Z,20.27
2018-12-18T23:27:02.480Z,19.77
2018-12-18T23:29:30.182Z,20.43
2018-12-18T23:31:57.997Z,21.20
2018-12-18T23:34:25.534Z,20.93
2018-12-18T23:36:53.151Z,19.57
2018-12-18T23:39:20.805Z,19.97
2018-12-18T23:41:48.397Z,20.43
2018-12-18T23:44:16.033Z,20.00
2018-12-18T23:46:43.467Z,22.57
2018-12-18T23:49:10.918Z,20.60
2018-12-18T23:51:38.742Z,22.93
2018-12-18T23:54:06.221Z,21.17
2018-12-18T23:56:33.665Z,22.70
2018-12-18T23:59:01.403Z,21.23
